createdAt,value
2022-08-08T00:00:53.526Z,43.25
2022-08-08T00:00:59.724Z,43.13
2022-08-08T00:01:16.688Z,43.64
2022-08-08T00:02:30.531Z,43.21
2022-08-08T00:02:57.965Z,43.43
2022-08-08T00:03:38.983Z,43.47
2022-08-08T00:04:17.590Z,43.45
2022-08-08T00:05:01.267Z,43.35
2022-08-08T00:05:44.232Z,43.27
2022-08-08T00:06:38.999Z,43.35
2022-08-08T00:07:18.054Z,43.11
2022-08-08T00:08:02.806Z,43.32
2022-08-08T00:08:48.885Z,43.20
2022-08-08T00:09:27.704Z,43.34
2022-08-08T00:10:15.206Z,43.16
2022-08-08T00:10:53.562Z,43.25
2022-08-08T00:11:47.070Z,43.41
2022-08-08T00:12:33.379Z,43.54
2022-08-08T00:13:12.731Z,43.15
2022-08-08T00:14:17.664Z,43.42
2022-08-08T00:15:03.369Z,43.61
2022-08-08T00:15:55.929Z,43.36
2022-08-08T00:16:40.753Z,43.12
2022-08-08T00:17:23.150Z,43.12
2022-08-08T00:18:03.716Z,43.14
2022-08-08T00:18:45.656Z,43.31
2022-08-08T00:19:22.450Z,43.18
2022-08-08T00:20:00.759Z,43.12
2022-08-08T00:20:42.376Z,43.32
2022-08-08T00:21:23.011Z,43.40
2022-08-08T00:21:58.494Z,43.45
2022-08-08T00:22:40.030Z,43.57
2022-08-08T00:23:17.268Z,43.30
2022-08-08T00:23:54.851Z,43.33
2022-08-08T00:24:33.238Z,43.64
2022-08-08T00:25:09.393Z,43.54
2022-08-08T00:25:50.853Z,43.44
2022-08-08T00:26:29.443Z,43.30
2022-08-08T00:27:05.918Z,43.54
2022-08-08T00:27:42.138Z,43.40
2022-08-08T00:28:34.389Z,43.08
2022-08-08T00:29:14.922Z,43.23
2022-08-08T00:29:57.167Z,43.52
2022-08-08T00:30:33.870Z,43.13
2022-08-08T00:32:21.005Z,43.43
2022-08-08T00:32:29.128Z,43.26
2022-08-08T00:33:09.443Z,43.34
2022-08-08T00:34:18.686Z,43.19
2022-08-08T00:35:18.591Z,43.13
2022-08-08T00:36:00.762Z,43.26
2022-08-08T00:36:36.231Z,43.07
2022-08-08T00:37:48.099Z,42.99
2022-08-08T00:38:44.456Z,43.15
2022-08-08T00:41:06.091Z,43.30
2022-08-08T00:41:06.972Z,43.46
2022-08-08T00:42:09.201Z,42.96
2022-08-08T00:43:19.589Z,43.26
2022-08-08T00:44:32.332Z,43.28
2022-08-08T00:45:29.490Z,42.94
2022-08-08T00:46:16.103Z,43.18
2022-08-08T00:47:14.206Z,43.06
2022-08-08T00:48:29.583Z,42.82
2022-08-08T00:49:32.193Z,43.07
2022-08-08T00:50:52.353Z,42.77
2022-08-08T00:51:48.899Z,43.01
2022-08-08T00:52:51.460Z,42.83
2022-08-08T00:53:57.155Z,42.98
2022-08-08T00:55:00.254Z,42.80
2022-08-08T00:56:04.177Z,43.06
2022-08-08T00:57:06.675Z,43.18
2022-08-08T00:58:13.559Z,43.23
2022-08-08T00:59:18.663Z,43.24
2022-08-08T01:00:10.937Z,43.18
2022-08-08T01:01:05.404Z,42.94
2022-08-08T01:01:42.509Z,43.04
2022-08-08T01:04:02.349Z,43.04
2022-08-08T01:04:49.918Z,42.91
2022-08-08T01:05:59.610Z,42.99
2022-08-08T01:07:01.337Z,42.98
2022-08-08T01:07:55.067Z,43.20
2022-08-08T01:09:36.263Z,43.07
2022-08-08T01:11:00.764Z,42.90
2022-08-08T01:12:11.551Z,42.97
2022-08-08T01:13:44.015Z,43.08
2022-08-08T01:14:57.442Z,42.84
2022-08-08T01:15:58.984Z,42.75
2022-08-08T01:17:12.797Z,42.84
2022-08-08T01:18:50.790Z,43.01
2022-08-08T01:20:02.732Z,43.21
2022-08-08T01:20:48.907Z,42.97
2022-08-08T01:22:13.537Z,42.83
2022-08-08T01:23:55.010Z,43.05
2022-08-08T01:24:43.662Z,43.04
2022-08-08T01:26:11.469Z,43.25
2022-08-08T01:27:21.270Z,42.93
2022-08-08T01:28:18.102Z,43.07
2022-08-08T01:29:24.271Z,42.77
2022-08-08T01:30:35.542Z,43.20
2022-08-08T01:32:06.608Z,43.11
2022-08-08T01:33:23.372Z,42.95
2022-08-08T01:34:37.709Z,42.71
2022-08-08T01:35:51.951Z,42.72
2022-08-08T01:36:50.992Z,42.73
2022-08-08T01:38:00.691Z,42.77
2022-08-08T01:39:07.082Z,43.23
2022-08-08T01:40:02.802Z,42.93
2022-08-08T01:40:46.716Z,43.11
2022-08-08T01:41:25.858Z,42.90
2022-08-08T01:42:04.684Z,42.86
2022-08-08T01:42:50.316Z,42.83
2022-08-08T01:43:38.401Z,43.07
2022-08-08T01:44:26.420Z,42.89
2022-08-08T01:45:09.871Z,42.96
2022-08-08T01:45:54.512Z,43.00
2022-08-08T01:46:52.197Z,42.94
2022-08-08T01:48:13.887Z,42.94
2022-08-08T01:48:56.065Z,42.75
2022-08-08T01:49:45.199Z,42.75
2022-08-08T01:50:34.826Z,43.06
2022-08-08T01:52:04.179Z,43.24
2022-08-08T01:52:59.154Z,42.75
2022-08-08T01:55:16.552Z,42.87
2022-08-08T01:56:04.567Z,42.72
2022-08-08T01:56:28.560Z,43.16
2022-08-08T01:57:17.604Z,42.91
2022-08-08T01:58:11.642Z,43.02
2022-08-08T01:58:56.516Z,42.87
2022-08-08T02:00:02.118Z,43.26
2022-08-08T02:00:57.620Z,43.04
2022-08-08T02:02:05.654Z,43.08
2022-08-08T02:03:55.624Z,43.14
2022-08-08T02:04:29.251Z,42.85
2022-08-08T02:05:15.865Z,42.75
2022-08-08T02:05:59.037Z,42.85
2022-08-08T02:06:54.529Z,42.93
2022-08-08T02:07:41.446Z,43.21
2022-08-08T02:08:22.229Z,43.00
2022-08-08T02:09:17.615Z,42.88
2022-08-08T02:10:29.389Z,42.85
2022-08-08T02:11:23.043Z,43.19
2022-08-08T02:12:00.063Z,43.02
2022-08-08T02:12:52.963Z,42.79
2022-08-08T02:13:54.379Z,43.06
2022-08-08T02:14:49.757Z,42.96
2022-08-08T02:15:30.536Z,42.99
2022-08-08T02:16:20.808Z,42.94
2022-08-08T02:17:03.596Z,42.67
2022-08-08T02:17:50.467Z,42.65
2022-08-08T02:18:29.945Z,42.67
2022-08-08T02:19:26.882Z,42.99
2022-08-08T02:20:16.129Z,43.04
2022-08-08T02:21:33.043Z,42.87
2022-08-08T02:22:28.343Z,42.87
2022-08-08T02:23:16.047Z,42.87
2022-08-08T02:23:54.809Z,42.72
2022-08-08T02:24:32.823Z,42.58
2022-08-08T02:25:16.480Z,42.75
2022-08-08T02:25:56.261Z,42.54
2022-08-08T02:26:40.074Z,42.82
2022-08-08T02:27:18.355Z,42.77
2022-08-08T02:27:57.755Z,42.48
2022-08-08T02:28:48.589Z,42.93
2022-08-08T02:29:46.837Z,42.72
2022-08-08T02:30:38.013Z,42.49
2022-08-08T02:31:59.344Z,42.74
2022-08-08T02:32:42.093Z,42.46
2022-08-08T02:34:00.162Z,42.96
2022-08-08T02:35:07.679Z,42.50
2022-08-08T02:36:04.129Z,42.76
2022-08-08T02:36:58.657Z,42.77
2022-08-08T02:37:52.120Z,42.65
2022-08-08T02:39:40.845Z,42.52
2022-08-08T02:40:08.922Z,42.70
2022-08-08T02:40:57.357Z,42.68
2022-08-08T02:42:04.505Z,42.83
2022-08-08T02:44:35.488Z,43.02
2022-08-08T02:44:38.439Z,42.55
2022-08-08T02:45:54.366Z,42.88
2022-08-08T02:46:50.662Z,42.89
2022-08-08T02:48:09.878Z,42.63
2022-08-08T02:49:13.878Z,43.01
2022-08-08T02:50:17.730Z,42.72
2022-08-08T02:51:46.493Z,42.84
2022-08-08T02:52:54.258Z,43.02
2022-08-08T02:53:51.939Z,43.00
2022-08-08T02:54:49.998Z,42.82
2022-08-08T02:55:37.710Z,43.06
2022-08-08T02:56:47.979Z,42.96
2022-08-08T02:57:52.192Z,43.08
2022-08-08T02:59:01.671Z,42.87
2022-08-08T03:00:31.880Z,43.03
2022-08-08T03:01:47.361Z,42.61
2022-08-08T03:02:53.303Z,42.75
2022-08-08T03:05:05.295Z,42.84
2022-08-08T03:05:44.859Z,42.86
2022-08-08T03:06:46.314Z,42.67
2022-08-08T03:07:57.967Z,42.97
2022-08-08T03:09:03.285Z,43.00
2022-08-08T03:10:17.906Z,42.91
2022-08-08T03:12:01.279Z,43.15
2022-08-08T03:15:54.025Z,43.01
2022-08-08T03:15:56.774Z,42.67
2022-08-08T03:16:02.859Z,42.55
2022-08-08T03:16:48.350Z,42.63
2022-08-08T03:17:39.758Z,42.59
2022-08-08T03:18:31.376Z,42.53
2022-08-08T03:19:38.396Z,42.97
2022-08-08T03:20:11.754Z,42.69
2022-08-08T03:20:52.625Z,42.57
2022-08-08T03:21:54.488Z,42.52
2022-08-08T03:22:38.607Z,42.61
2022-08-08T03:23:20.677Z,42.63
2022-08-08T03:24:01.984Z,42.58
2022-08-08T03:24:39.660Z,42.60
2022-08-08T03:25:21.543Z,42.78
2022-08-08T03:26:09.357Z,42.54
2022-08-08T03:26:49.316Z,42.34
2022-08-08T03:27:35.896Z,42.70
2022-08-08T03:28:21.690Z,42.40
2022-08-08T03:29:00.229Z,42.31
2022-08-08T03:29:56.097Z,42.48
2022-08-08T03:30:34.750Z,42.64
2022-08-08T03:31:27.423Z,42.29
2022-08-08T03:32:29.107Z,42.32
2022-08-08T03:33:54.589Z,42.26
2022-08-08T03:34:17.058Z,42.30
2022-08-08T03:34:51.030Z,42.67
2022-08-08T03:35:24.718Z,42.77
2022-08-08T03:36:02.263Z,42.54
2022-08-08T03:36:43.279Z,42.78
2022-08-08T03:37:59.550Z,42.36
2022-08-08T03:38:57.069Z,42.71
2022-08-08T03:39:15.578Z,42.28
2022-08-08T03:40:00.392Z,42.48
2022-08-08T03:40:40.195Z,42.47
2022-08-08T03:42:27.146Z,42.50
2022-08-08T03:42:30.376Z,42.36
2022-08-08T03:43:16.711Z,42.58
2022-08-08T03:44:00.864Z,42.50
2022-08-08T03:44:37.468Z,42.41
2022-08-08T03:46:03.481Z,42.57
2022-08-08T03:46:13.595Z,42.48
2022-08-08T03:46:47.870Z,42.31
2022-08-08T03:47:23.099Z,42.65
2022-08-08T03:48:04.824Z,42.21
2022-08-08T03:49:58.196Z,42.33
2022-08-08T03:50:00.824Z,42.17
2022-08-08T03:50:40.094Z,42.53
2022-08-08T03:51:16.298Z,42.35
2022-08-08T03:51:59.876Z,41.98
2022-08-08T03:52:35.747Z,42.32
2022-08-08T03:53:14.030Z,41.97
2022-08-08T03:53:58.924Z,42.14
2022-08-08T03:54:41.093Z,42.01
2022-08-08T03:55:57.641Z,42.36
2022-08-08T03:56:32.166Z,42.33
2022-08-08T03:58:31.266Z,42.36
2022-08-08T03:58:33.405Z,42.40
2022-08-08T03:59:08.950Z,42.23
2022-08-08T04:00:11.597Z,42.32
2022-08-08T04:01:01.434Z,42.71
2022-08-08T04:02:02.489Z,42.66
2022-08-08T04:02:47.732Z,42.63
2022-08-08T04:03:58.426Z,42.41
2022-08-08T04:04:20.405Z,42.68
2022-08-08T04:04:55.743Z,42.43
2022-08-08T04:05:31.965Z,42.86
2022-08-08T04:06:11.107Z,42.79
2022-08-08T04:06:50.167Z,42.65
2022-08-08T04:07:22.671Z,42.46
2022-08-08T04:07:55.803Z,42.87
2022-08-08T04:08:33.713Z,42.49
2022-08-08T04:09:11.364Z,42.86
2022-08-08T04:10:03.386Z,42.52
2022-08-08T04:10:42.777Z,42.79
2022-08-08T04:11:23.466Z,42.75
2022-08-08T04:12:00.999Z,42.86
2022-08-08T04:13:03.819Z,42.73
2022-08-08T04:14:03.610Z,42.51
2022-08-08T04:14:52.128Z,42.91
2022-08-08T04:15:38.216Z,42.72
2022-08-08T04:16:11.311Z,42.99
2022-08-08T04:16:50.802Z,42.63
2022-08-08T04:17:57.821Z,42.53
2022-08-08T04:18:20.092Z,42.99
2022-08-08T04:18:52.975Z,42.57
2022-08-08T04:19:28.674Z,42.84
2022-08-08T04:20:13.073Z,43.04
2022-08-08T04:20:46.505Z,42.60
2022-08-08T04:21:22.910Z,42.69
2022-08-08T04:22:01.381Z,42.96
2022-08-08T04:22:40.882Z,42.88
2022-08-08T04:23:16.999Z,43.19
2022-08-08T04:24:18.955Z,42.89
2022-08-08T04:24:50.041Z,42.80
2022-08-08T04:25:30.201Z,43.13
2022-08-08T04:26:09.148Z,42.88
2022-08-08T04:26:56.923Z,43.20
2022-08-08T04:28:01.862Z,42.92
2022-08-08T04:28:37.027Z,42.93
2022-08-08T04:29:15.112Z,42.97
2022-08-08T04:30:00.768Z,42.76
2022-08-08T04:30:44.197Z,42.91
2022-08-08T04:31:56.954Z,42.65
2022-08-08T04:32:30.347Z,42.84
2022-08-08T04:33:07.970Z,42.93
2022-08-08T04:33:43.359Z,43.08
2022-08-08T04:34:18.540Z,42.65
2022-08-08T04:34:58.254Z,42.70
2022-08-08T04:35:39.604Z,43.19
2022-08-08T04:36:17.027Z,42.81
2022-08-08T04:36:49.455Z,42.75
2022-08-08T04:37:31.685Z,42.69
2022-08-08T04:38:10.083Z,42.71
2022-08-08T04:38:57.240Z,43.03
2022-08-08T04:40:03.197Z,42.87
2022-08-08T04:40:51.797Z,43.15
2022-08-08T04:41:35.797Z,43.18
2022-08-08T04:42:11.350Z,42.65
2022-08-08T04:42:57.309Z,42.65
2022-08-08T04:43:45.214Z,42.64
2022-08-08T04:44:26.749Z,42.88
2022-08-08T04:45:02.708Z,42.89
2022-08-08T04:45:35.187Z,42.77
2022-08-08T04:46:09.910Z,43.18
2022-08-08T04:46:46.397Z,42.93
2022-08-08T04:47:19.160Z,43.14
2022-08-08T04:47:51.582Z,43.22
2022-08-08T04:48:26.811Z,43.18
2022-08-08T04:48:59.511Z,43.25
2022-08-08T04:50:00.620Z,43.04
2022-08-08T04:50:37.918Z,42.72
2022-08-08T04:51:12.251Z,43.23
2022-08-08T04:51:58.699Z,43.24
2022-08-08T04:52:35.193Z,43.04
2022-08-08T04:53:52.294Z,42.96
2022-08-08T04:54:40.110Z,42.92
2022-08-08T04:55:00.669Z,42.82
2022-08-08T04:55:37.892Z,42.94
2022-08-08T04:56:23.629Z,43.02
2022-08-08T04:56:58.812Z,42.99
2022-08-08T04:57:31.443Z,42.75
2022-08-08T04:58:11.057Z,42.59
2022-08-08T04:58:50.347Z,42.73
2022-08-08T04:59:24.178Z,43.02
2022-08-08T05:00:02.786Z,42.66
2022-08-08T05:00:37.851Z,42.60
2022-08-08T05:01:11.743Z,42.62
2022-08-08T05:01:59.477Z,42.85
2022-08-08T05:02:36.655Z,42.89
2022-08-08T05:03:19.128Z,42.74
2022-08-08T05:04:12.820Z,42.79
2022-08-08T05:04:49.466Z,42.72
2022-08-08T05:05:45.411Z,43.09
2022-08-08T05:06:18.496Z,42.84
2022-08-08T05:07:03.533Z,43.00
2022-08-08T05:07:42.913Z,43.01
2022-08-08T05:08:20.187Z,43.07
2022-08-08T05:09:02.968Z,43.07
2022-08-08T05:09:43.274Z,43.11
2022-08-08T05:10:15.716Z,43.31
2022-08-08T05:10:51.652Z,43.29
2022-08-08T05:11:27.106Z,42.96
2022-08-08T05:12:06.551Z,43.26
2022-08-08T05:13:01.598Z,43.06
2022-08-08T05:13:36.920Z,43.00
2022-08-08T05:14:32.259Z,43.27
2022-08-08T05:15:13.507Z,42.90
2022-08-08T05:16:52.410Z,43.10
2022-08-08T05:16:54.355Z,42.71
2022-08-08T05:17:53.402Z,42.63
2022-08-08T05:18:28.682Z,42.55
2022-08-08T05:19:01.182Z,42.58
2022-08-08T05:20:09.194Z,42.26
2022-08-08T05:20:48.389Z,42.55
2022-08-08T05:21:26.589Z,42.17
2022-08-08T05:22:00.720Z,42.50
2022-08-08T05:22:39.107Z,42.35
2022-08-08T05:23:11.713Z,42.55
2022-08-08T05:23:46.045Z,42.20
2022-08-08T05:24:22.621Z,42.19
2022-08-08T05:24:59.218Z,42.14
2022-08-08T05:25:40.497Z,42.63
2022-08-08T05:26:14.505Z,42.25
2022-08-08T05:26:49.679Z,42.58
2022-08-08T05:27:24.818Z,42.15
2022-08-08T05:27:58.711Z,42.47
2022-08-08T05:28:56.513Z,42.63
2022-08-08T05:29:29.320Z,42.26
2022-08-08T05:30:03.745Z,42.26
2022-08-08T05:30:47.119Z,42.25
2022-08-08T05:32:05.446Z,42.61
2022-08-08T05:32:15.960Z,42.33
2022-08-08T05:32:48.891Z,42.62
2022-08-08T05:33:27.656Z,42.31
2022-08-08T05:34:23.195Z,42.46
2022-08-08T05:35:04.980Z,42.70
2022-08-08T05:35:42.763Z,42.50
2022-08-08T05:36:25.155Z,42.44
2022-08-08T05:37:00.435Z,42.57
2022-08-08T05:37:51.804Z,42.32
2022-08-08T05:38:31.661Z,42.24
2022-08-08T05:39:12.066Z,42.89
2022-08-08T05:39:48.211Z,42.57
2022-08-08T05:40:28.006Z,42.46
2022-08-08T05:41:05.050Z,42.33
2022-08-08T05:41:54.852Z,42.21
2022-08-08T05:42:38.237Z,42.52
2022-08-08T05:43:38.329Z,42.35
2022-08-08T05:44:14.442Z,42.58
2022-08-08T05:44:51.835Z,42.51
2022-08-08T05:45:31.352Z,42.21
2022-08-08T05:46:17.623Z,42.50
2022-08-08T05:46:53.563Z,42.31
2022-08-08T05:47:52.743Z,42.77
2022-08-08T05:48:31.782Z,42.53
2022-08-08T05:49:11.668Z,42.40
2022-08-08T05:49:56.009Z,42.71
2022-08-08T05:50:36.427Z,42.45
2022-08-08T05:51:12.782Z,42.65
2022-08-08T05:51:51.660Z,42.65
2022-08-08T05:52:33.921Z,42.50
2022-08-08T05:53:53.635Z,42.70
2022-08-08T05:54:26.787Z,42.77
2022-08-08T05:55:03.461Z,42.89
2022-08-08T05:56:11.551Z,42.72
2022-08-08T05:56:42.704Z,42.50
2022-08-08T05:58:05.555Z,43.01
2022-08-08T05:58:28.863Z,42.54
2022-08-08T05:59:12.420Z,42.90
2022-08-08T06:00:00.214Z,42.77
2022-08-08T06:00:59.587Z,42.89
2022-08-08T06:01:52.527Z,42.91
2022-08-08T06:02:43.765Z,43.09
2022-08-08T06:03:25.392Z,42.68
2022-08-08T06:04:08.072Z,42.69
2022-08-08T06:04:54.707Z,42.75
2022-08-08T06:05:36.026Z,42.70
2022-08-08T06:06:17.946Z,42.55
2022-08-08T06:06:51.909Z,42.70
2022-08-08T06:07:24.420Z,42.59
2022-08-08T06:08:09.530Z,42.54
2022-08-08T06:08:53.212Z,42.63
2022-08-08T06:09:59.383Z,42.94
2022-08-08T06:10:32.235Z,43.01
2022-08-08T06:11:08.694Z,42.55
2022-08-08T06:11:46.789Z,42.54
2022-08-08T06:12:30.149Z,42.69
2022-08-08T06:13:07.166Z,42.88
2022-08-08T06:13:46.982Z,42.98
2022-08-08T06:14:25.912Z,42.74
2022-08-08T06:14:58.750Z,42.91
2022-08-08T06:15:50.527Z,42.91
2022-08-08T06:16:31.577Z,42.74
2022-08-08T06:17:20.438Z,42.92
2022-08-08T06:18:20.358Z,42.48
2022-08-08T06:18:54.523Z,42.91
2022-08-08T06:19:33.185Z,42.67
2022-08-08T06:20:11.713Z,42.42
2022-08-08T06:20:45.764Z,42.42
2022-08-08T06:21:28.212Z,42.54
2022-08-08T06:22:32.226Z,42.55
2022-08-08T06:23:04.662Z,42.65
2022-08-08T06:23:53.397Z,42.75
2022-08-08T06:24:40.077Z,42.82
2022-08-08T06:25:13.665Z,42.68
2022-08-08T06:26:43.312Z,42.37
2022-08-08T06:27:01.079Z,42.26
2022-08-08T06:27:47.850Z,42.44
2022-08-08T06:28:28.972Z,42.82
2022-08-08T06:29:18.613Z,42.70
2022-08-08T06:30:19.861Z,42.54
2022-08-08T06:31:02.526Z,42.27
2022-08-08T06:32:09.362Z,42.65
2022-08-08T06:32:38.890Z,42.75
2022-08-08T06:33:15.084Z,42.55
2022-08-08T06:34:26.281Z,42.56
2022-08-08T06:34:56.375Z,42.75
2022-08-08T06:36:06.432Z,42.51
2022-08-08T06:36:53.510Z,42.27
2022-08-08T06:37:29.074Z,42.49
2022-08-08T06:38:14.965Z,42.60
2022-08-08T06:38:54.858Z,42.25
2022-08-08T06:39:33.394Z,42.52
2022-08-08T06:40:16.434Z,42.58
2022-08-08T06:40:53.678Z,42.53
2022-08-08T06:41:35.695Z,42.75
2022-08-08T06:42:15.375Z,42.73
2022-08-08T06:42:57.526Z,42.61
2022-08-08T06:43:37.791Z,42.37
2022-08-08T06:44:25.581Z,42.57
2022-08-08T06:45:05.442Z,42.17
2022-08-08T06:45:42.828Z,42.68
2022-08-08T06:46:16.376Z,42.20
2022-08-08T06:46:55.239Z,42.49
2022-08-08T06:47:31.516Z,42.42
2022-08-08T06:48:10.111Z,42.17
2022-08-08T06:48:46.045Z,42.30
2022-08-08T06:49:19.319Z,42.64
2022-08-08T06:50:17.670Z,42.67
2022-08-08T06:51:08.365Z,42.17
2022-08-08T06:51:52.700Z,42.30
2022-08-08T06:52:32.364Z,42.26
2022-08-08T06:53:17.434Z,41.96
2022-08-08T06:53:56.733Z,42.27
2022-08-08T06:54:49.009Z,42.10
2022-08-08T06:55:22.233Z,42.17
2022-08-08T06:56:02.246Z,42.59
2022-08-08T06:56:38.106Z,42.67
2022-08-08T06:57:15.228Z,42.50
2022-08-08T06:57:56.329Z,42.75
2022-08-08T06:58:34.129Z,42.48
2022-08-08T06:59:12.355Z,42.50
2022-08-08T07:00:11.436Z,42.51
2022-08-08T07:00:45.795Z,42.27
2022-08-08T07:02:17.968Z,42.35
2022-08-08T07:02:28.935Z,42.24
2022-08-08T07:03:08.576Z,42.42
2022-08-08T07:04:36.350Z,42.38
2022-08-08T07:04:54.650Z,41.97
2022-08-08T07:05:40.223Z,42.12
2022-08-08T07:06:17.375Z,42.24
2022-08-08T07:06:56.441Z,42.31
2022-08-08T07:07:46.851Z,42.22
2022-08-08T07:08:30.159Z,42.14
2022-08-08T07:09:09.018Z,42.12
2022-08-08T07:09:59.924Z,42.30
2022-08-08T07:10:49.710Z,42.02
2022-08-08T07:11:26.912Z,41.81
2022-08-08T07:12:06.774Z,42.01
2022-08-08T07:12:47.913Z,41.76
2022-08-08T07:14:00.456Z,42.03
2022-08-08T07:14:46.107Z,41.83
2022-08-08T07:16:03.778Z,41.90
2022-08-08T07:16:35.419Z,41.74
2022-08-08T07:17:40.194Z,41.90
2022-08-08T07:18:35.980Z,41.94
2022-08-08T07:19:12.899Z,41.56
2022-08-08T07:19:59.835Z,41.72
2022-08-08T07:20:40.636Z,41.50
2022-08-08T07:21:27.061Z,41.59
2022-08-08T07:22:11.886Z,41.54
2022-08-08T07:23:01.863Z,41.67
2022-08-08T07:24:01.044Z,41.83
2022-08-08T07:24:39.033Z,41.78
2022-08-08T07:25:17.408Z,41.49
2022-08-08T07:25:55.541Z,41.44
2022-08-08T07:26:35.764Z,41.44
2022-08-08T07:27:16.421Z,41.65
2022-08-08T07:28:02.571Z,41.28
2022-08-08T07:28:44.830Z,41.46
2022-08-08T07:30:00.440Z,41.73
2022-08-08T07:30:21.298Z,41.63
2022-08-08T07:31:01.262Z,41.28
2022-08-08T07:31:39.302Z,41.78
2022-08-08T07:32:15.848Z,41.53
2022-08-08T07:32:54.656Z,41.36
2022-08-08T07:33:37.606Z,41.50
2022-08-08T07:34:20.264Z,41.75
2022-08-08T07:35:08.576Z,41.75
2022-08-08T07:35:51.291Z,41.50
2022-08-08T07:36:27.281Z,41.22
2022-08-08T07:37:11.733Z,41.46
2022-08-08T07:38:04.371Z,41.46
2022-08-08T07:38:53.352Z,41.73
2022-08-08T07:39:35.456Z,41.25
2022-08-08T07:40:28.929Z,41.28
2022-08-08T07:41:23.545Z,41.51
2022-08-08T07:42:04.543Z,41.81
2022-08-08T07:42:40.501Z,41.50
2022-08-08T07:43:16.909Z,41.66
2022-08-08T07:44:37.807Z,41.35
2022-08-08T07:45:02.137Z,41.18
2022-08-08T07:46:04.815Z,41.36
2022-08-08T07:46:33.608Z,41.17
2022-08-08T07:47:22.205Z,40.97
2022-08-08T07:48:13.567Z,41.38
2022-08-08T07:48:49.451Z,41.32
2022-08-08T07:49:21.984Z,41.44
2022-08-08T07:49:54.891Z,41.42
2022-08-08T07:50:34.214Z,41.35
2022-08-08T07:51:24.015Z,41.62
2022-08-08T07:52:06.242Z,41.47
2022-08-08T07:52:43.800Z,41.58
2022-08-08T07:54:01.813Z,41.08
2022-08-08T07:54:30.594Z,41.27
2022-08-08T07:55:14.136Z,41.58
2022-08-08T07:55:49.000Z,41.23
2022-08-08T07:56:35.527Z,41.49
2022-08-08T07:57:21.142Z,41.27
2022-08-08T07:58:14.786Z,41.25
2022-08-08T07:58:50.040Z,41.17
2022-08-08T07:59:24.131Z,41.55
2022-08-08T08:00:16.456Z,41.38
2022-08-08T08:01:05.482Z,41.41
2022-08-08T08:02:36.802Z,41.78
2022-08-08T08:02:47.805Z,41.39
2022-08-08T08:03:43.431Z,41.48
2022-08-08T08:04:25.810Z,41.15
2022-08-08T08:05:03.645Z,41.42
2022-08-08T08:05:45.248Z,41.15
2022-08-08T08:06:27.349Z,41.44
2022-08-08T08:07:00.935Z,41.17
2022-08-08T08:07:38.780Z,41.03
2022-08-08T08:08:18.976Z,41.06
2022-08-08T08:08:58.430Z,41.16
2022-08-08T08:09:37.719Z,40.97
2022-08-08T08:10:30.468Z,41.34
2022-08-08T08:11:18.463Z,40.79
2022-08-08T08:11:56.462Z,40.86
2022-08-08T08:12:38.598Z,40.58
2022-08-08T08:13:25.454Z,41.04
2022-08-08T08:14:09.602Z,41.05
2022-08-08T08:14:54.842Z,40.77
2022-08-08T08:15:33.636Z,40.85
2022-08-08T08:16:09.871Z,40.79
2022-08-08T08:16:54.805Z,41.02
2022-08-08T08:17:47.529Z,40.87
2022-08-08T08:18:31.942Z,40.85
2022-08-08T08:19:07.500Z,40.94
2022-08-08T08:19:50.423Z,40.53
2022-08-08T08:20:30.065Z,40.76
2022-08-08T08:21:04.038Z,40.74
2022-08-08T08:21:57.750Z,40.79
2022-08-08T08:22:48.830Z,40.74
2022-08-08T08:23:27.565Z,40.78
2022-08-08T08:24:03.042Z,40.79
2022-08-08T08:24:39.483Z,40.48
2022-08-08T08:25:16.908Z,40.52
2022-08-08T08:25:58.549Z,40.87
2022-08-08T08:26:32.559Z,40.73
2022-08-08T08:27:11.112Z,40.80
2022-08-08T08:27:47.564Z,40.74
2022-08-08T08:28:23.728Z,40.96
2022-08-08T08:29:00.267Z,40.65
2022-08-08T08:29:35.683Z,40.64
2022-08-08T08:30:12.931Z,40.25
2022-08-08T08:30:45.803Z,40.60
2022-08-08T08:31:21.087Z,40.31
2022-08-08T08:31:58.384Z,40.62
2022-08-08T08:32:36.301Z,40.22
2022-08-08T08:33:20.857Z,40.11
2022-08-08T08:33:54.710Z,40.14
2022-08-08T08:34:32.504Z,40.11
2022-08-08T08:35:08.063Z,40.59
2022-08-08T08:36:18.881Z,40.48
2022-08-08T08:36:37.528Z,40.46
2022-08-08T08:37:15.717Z,40.38
2022-08-08T08:38:14.622Z,40.40
2022-08-08T08:38:49.496Z,40.38
2022-08-08T08:39:59.522Z,40.08
2022-08-08T08:40:22.203Z,40.37
2022-08-08T08:40:55.309Z,40.23
2022-08-08T08:41:31.491Z,40.35
2022-08-08T08:42:05.364Z,40.53
2022-08-08T08:42:45.071Z,40.27
2022-08-08T08:43:26.639Z,40.30
2022-08-08T08:44:14.172Z,40.25
2022-08-08T08:44:49.379Z,40.25
2022-08-08T08:45:23.853Z,40.11
2022-08-08T08:46:05.927Z,40.25
2022-08-08T08:46:39.511Z,40.33
2022-08-08T08:47:20.704Z,40.13
2022-08-08T08:47:58.536Z,39.80
2022-08-08T08:48:49.152Z,40.05
2022-08-08T08:49:25.634Z,40.07
2022-08-08T08:50:02.988Z,40.18
2022-08-08T08:50:40.964Z,39.84
2022-08-08T08:51:17.879Z,39.96
2022-08-08T08:51:54.498Z,40.07
2022-08-08T08:52:28.843Z,40.06
2022-08-08T08:53:28.240Z,40.07
2022-08-08T08:54:05.869Z,40.15
2022-08-08T08:54:41.864Z,40.08
2022-08-08T08:55:16.168Z,40.01
2022-08-08T08:56:02.551Z,39.93
2022-08-08T08:56:39.499Z,40.38
2022-08-08T08:57:21.597Z,39.85
2022-08-08T08:57:55.510Z,40.11
2022-08-08T08:58:39.974Z,39.93
2022-08-08T08:59:16.659Z,39.78
2022-08-08T09:00:05.664Z,39.95
2022-08-08T09:01:04.968Z,39.58
2022-08-08T09:01:43.910Z,39.97
2022-08-08T09:02:30.068Z,40.04
2022-08-08T09:03:09.758Z,39.67
2022-08-08T09:03:47.189Z,39.79
2022-08-08T09:04:32.176Z,39.84
2022-08-08T09:05:49.060Z,39.65
2022-08-08T09:06:26.714Z,39.91
2022-08-08T09:07:12.714Z,39.82
2022-08-08T09:07:52.271Z,39.92
2022-08-08T09:08:49.817Z,39.60
2022-08-08T09:09:39.033Z,39.49
2022-08-08T09:10:28.191Z,39.88
2022-08-08T09:11:04.622Z,39.48
2022-08-08T09:11:46.928Z,39.60
2022-08-08T09:12:25.498Z,40.21
2022-08-08T09:13:00.966Z,40.06
2022-08-08T09:13:37.881Z,39.85
2022-08-08T09:14:10.922Z,39.85
2022-08-08T09:14:46.992Z,40.09
2022-08-08T09:15:37.535Z,39.79
2022-08-08T09:16:16.234Z,39.97
2022-08-08T09:16:53.813Z,39.79
2022-08-08T09:17:41.138Z,39.83
2022-08-08T09:18:21.077Z,39.70
2022-08-08T09:18:58.184Z,39.81
2022-08-08T09:21:53.802Z,39.73
2022-08-08T09:21:58.129Z,39.86
2022-08-08T09:21:59.698Z,39.30
2022-08-08T09:22:26.139Z,39.82
2022-08-08T09:23:01.869Z,39.99
2022-08-08T09:23:40.900Z,39.71
2022-08-08T09:24:17.695Z,39.89
2022-08-08T09:24:56.022Z,39.96
2022-08-08T09:25:36.200Z,39.45
2022-08-08T09:26:39.483Z,39.87
2022-08-08T09:27:21.190Z,39.76
2022-08-08T09:27:58.743Z,39.76
2022-08-08T09:28:40.606Z,39.49
2022-08-08T09:29:24.945Z,39.41
2022-08-08T09:30:04.726Z,39.53
2022-08-08T09:30:42.066Z,39.24
2022-08-08T09:31:16.746Z,39.57
2022-08-08T09:31:56.559Z,39.53
2022-08-08T09:33:01.462Z,39.70
2022-08-08T09:34:15.160Z,39.50
2022-08-08T09:34:35.237Z,39.33
2022-08-08T09:35:16.358Z,39.72
2022-08-08T09:35:53.596Z,39.80
2022-08-08T09:36:29.040Z,39.75
2022-08-08T09:37:57.812Z,39.55
2022-08-08T09:38:02.277Z,39.58
2022-08-08T09:38:53.299Z,39.79
2022-08-08T09:39:34.155Z,39.29
2022-08-08T09:40:11.775Z,39.85
2022-08-08T09:40:57.404Z,39.72
2022-08-08T09:42:14.732Z,39.30
2022-08-08T09:42:44.075Z,39.50
2022-08-08T09:44:05.505Z,39.09
2022-08-08T09:44:34.204Z,39.66
2022-08-08T09:45:15.710Z,39.36
2022-08-08T09:46:03.433Z,39.55
2022-08-08T09:46:38.881Z,39.57
2022-08-08T09:48:02.044Z,39.19
2022-08-08T09:48:17.723Z,39.20
2022-08-08T09:48:54.830Z,39.72
2022-08-08T09:49:43.003Z,39.46
2022-08-08T09:50:28.135Z,39.50
2022-08-08T09:51:04.701Z,39.54
2022-08-08T09:52:01.680Z,39.39
2022-08-08T09:53:00.287Z,39.21
2022-08-08T09:54:01.132Z,39.23
2022-08-08T09:54:42.752Z,38.89
2022-08-08T09:56:02.818Z,38.87
2022-08-08T09:56:12.434Z,39.30
2022-08-08T09:56:58.635Z,39.28
2022-08-08T09:57:46.261Z,39.26
2022-08-08T09:58:27.862Z,38.80
2022-08-08T10:00:01.682Z,38.70
2022-08-08T10:00:37.772Z,38.89
2022-08-08T10:02:02.001Z,39.19
2022-08-08T10:02:24.926Z,38.73
2022-08-08T10:03:03.896Z,38.87
2022-08-08T10:03:43.756Z,38.70
2022-08-08T10:04:35.580Z,38.61
2022-08-08T10:05:20.068Z,38.76
2022-08-08T10:05:58.406Z,39.08
2022-08-08T10:06:32.856Z,39.25
2022-08-08T10:07:15.771Z,39.31
2022-08-08T10:08:00.298Z,38.90
2022-08-08T10:08:36.690Z,39.24